sensor_id;sensor_type;location;lat;lon;timestamp;P1;durP1;ratioP1;P2;durP2;ratioP2
49221;SDS011;35047;37.588;-122.048;2022-12-05T00:00:53;0.00;;;0.00;;
49221;SDS011;35047;37.588;-122.048;2022-12-05T00:05:47;0.22;;;0.10;;
49221;SDS011;35047;37.588;-122.048;2022-12-05T00:08:14;0.00;;;0.00;;
49221;SDS011;35047;37.588;-122.048;2022-12-05T00:10:41;1.50;;;0.20;;
49221;SDS011;35047;37.588;-122.048;2022-12-05T00:13:07;0.25;;;0.08;;
49221;SDS011;35047;37.588;-122.048;2022-12-05T00:15:35;0.10;;;0.10;;
49221;SDS011;35047;37.588;-122.048;2022-12-05T00:18:05;0.57;;;0.20;;
49221;SDS011;35047;37.588;-122.048;2022-12-05T00:20:33;0.00;;;0.00;;
49221;SDS011;35047;37.588;-122.048;2022-12-05T00:23:00;0.30;;;0.10;;
49221;SDS011;35047;37.588;-122.048;2022-12-05T00:25:26;0.00;;;0.00;;
49221;SDS011;35047;37.588;-122.048;2022-12-05T00:27:53;0.70;;;0.10;;
49221;SDS011;35047;37.588;-122.048;2022-12-05T00:30:20;1.65;;;0.10;;
49221;SDS011;35047;37.588;-122.048;2022-12-05T00:32:47;0.50;;;0.20;;
49221;SDS011;35047;37.588;-122.048;2022-12-05T00:35:14;0.03;;;0.03;;
49221;SDS011;35047;37.588;-122.048;2022-12-05T00:37:41;0.47;;;0.25;;
49221;SDS011;35047;37.588;-122.048;2022-12-05T00:42:34;1.08;;;0.10;;
49221;SDS011;35047;37.588;-122.048;2022-12-05T00:45:01;0.00;;;0.00;;
49221;SDS011;35047;37.588;-122.048;2022-12-05T00:47:31;0.03;;;0.03;;
49221;SDS011;35047;37.588;-122.048;2022-12-05T00:50:00;5.40;;;0.10;;
49221;SDS011;35047;37.588;-122.048;2022-12-05T00:52:29;0.20;;;0.10;;
49221;SDS011;35047;37.588;-122.048;2022-12-05T00:54:55;0.00;;;0.00;;
49221;SDS011;35047;37.588;-122.048;2022-12-05T00:57:22;0.08;;;0.03;;
49221;SDS011;35047;37.588;-122.048;2022-12-05T00:59:49;0.00;;;0.00;;
49221;SDS011;35047;37.588;-122.048;2022-12-05T01:02:16;0.10;;;0.00;;
49221;SDS011;35047;37.588;-122.048;2022-12-05T01:04:42;0.10;;;0.10;;
49221;SDS011;35047;37.588;-122.048;2022-12-05T01:07:09;0.13;;;0.00;;
49221;SDS011;35047;37.588;-122.048;2022-12-05T01:09:36;0.03;;;0.03;;
49221;SDS011;35047;37.588;-122.048;2022-12-05T01:12:03;1.20;;;0.10;;
49221;SDS011;35047;37.588;-122.048;2022-12-05T01:14:30;0.20;;;0.00;;
49221;SDS011;35047;37.588;-122.048;2022-12-05T01:16:56;0.00;;;0.00;;
49221;SDS011;35047;37.588;-122.048;2022-12-05T01:19:27;0.00;;;0.00;;
49221;SDS011;35047;37.588;-122.048;2022-12-05T01:21:56;0.00;;;0.00;;
49221;SDS011;35047;37.588;-122.048;2022-12-05T01:26:51;0.05;;;0.00;;
49221;SDS011;35047;37.588;-122.048;2022-12-05T01:29:19;0.43;;;0.13;;
49221;SDS011;35047;37.588;-122.048;2022-12-05T01:31:47;0.00;;;0.00;;
49221;SDS011;35047;37.588;-122.048;2022-12-05T01:34:15;0.17;;;0.13;;
49221;SDS011;35047;37.588;-122.048;2022-12-05T01:36:42;0.00;;;0.00;;
49221;SDS011;35047;37.588;-122.048;2022-12-05T01:39:11;0.90;;;0.17;;
49221;SDS011;35047;37.588;-122.048;2022-12-05T01:41:39;1.00;;;0.28;;
49221;SDS011;35047;37.588;-122.048;2022-12-05T01:46:47;0.17;;;0.05;;
49221;SDS011;35047;37.588;-122.048;2022-12-05T01:51:49;0.15;;;0.05;;
49221;SDS011;35047;37.588;-122.048;2022-12-05T01:54:20;3.47;;;0.38;;
49221;SDS011;35047;37.588;-122.048;2022-12-05T01:56:49;1.00;;;0.40;;
49221;SDS011;35047;37.588;-122.048;2022-12-05T01:59:25;2.38;;;0.77;;
49221;SDS011;35047;37.588;-122.048;2022-12-05T02:01:56;2.13;;;0.70;;
49221;SDS011;35047;37.588;-122.048;2022-12-05T02:04:22;1.50;;;0.57;;
49221;SDS011;35047;37.588;-122.048;2022-12-05T02:06:50;2.92;;;0.68;;
49221;SDS011;35047;37.588;-122.048;2022-12-05T02:11:48;1.33;;;0.80;;
49221;SDS011;35047;37.588;-122.048;2022-12-05T02:23:01;1.05;;;0.35;;
49221;SDS011;35047;37.588;-122.048;2022-12-05T02:25:50;1.15;;;0.40;;
49221;SDS011;35047;37.588;-122.048;2022-12-05T02:28:39;1.05;;;0.47;;
49221;SDS011;35047;37.588;-122.048;2022-12-05T02:34:14;2.35;;;0.50;;
49221;SDS011;35047;37.588;-122.048;2022-12-05T02:39:17;3.05;;;0.63;;
49221;SDS011;35047;37.588;-122.048;2022-12-05T02:42:02;0.15;;;0.15;;
49221;SDS011;35047;37.588;-122.048;2022-12-05T02:45:08;0.50;;;0.50;;
49221;SDS011;35047;37.588;-122.048;2022-12-05T02:47:32;0.93;;;0.40;;
49221;SDS011;35047;37.588;-122.048;2022-12-05T02:50:07;2.90;;;1.38;;
49221;SDS011;35047;37.588;-122.048;2022-12-05T02:52:38;2.90;;;0.63;;
49221;SDS011;35047;37.588;-122.048;2022-12-05T02:55:06;1.25;;;0.55;;
49221;SDS011;35047;37.588;-122.048;2022-12-05T02:57:33;1.33;;;0.90;;
49221;SDS011;35047;37.588;-122.048;2022-12-05T03:00:03;1.35;;;0.95;;
49221;SDS011;35047;37.588;-122.048;2022-12-05T03:02:32;5.72;;;1.50;;
49221;SDS011;35047;37.588;-122.048;2022-12-05T03:05:22;3.25;;;0.90;;
49221;SDS011;35047;37.588;-122.048;2022-12-05T03:07:51;0.73;;;0.60;;
49221;SDS011;35047;37.588;-122.048;2022-12-05T03:10:22;2.13;;;0.93;;
49221;SDS011;35047;37.588;-122.048;2022-12-05T03:12:55;1.13;;;0.70;;
49221;SDS011;35047;37.588;-122.048;2022-12-05T03:15:29;3.55;;;0.57;;
49221;SDS011;35047;37.588;-122.048;2022-12-05T03:18:04;1.52;;;0.68;;
49221;SDS011;35047;37.588;-122.048;2022-12-05T03:23:33;0.57;;;0.43;;
49221;SDS011;35047;37.588;-122.048;2022-12-05T03:31:21;0.30;;;0.20;;
49221;SDS011;35047;37.588;-122.048;2022-12-05T03:33:58;5.22;;;0.35;;
49221;SDS011;35047;37.588;-122.048;2022-12-05T03:36:28;1.75;;;0.30;;
49221;SDS011;35047;37.588;-122.048;2022-12-05T03:39:23;0.30;;;0.15;;
49221;SDS011;35047;37.588;-122.048;2022-12-05T03:41:59;5.70;;;0.43;;
49221;SDS011;35047;37.588;-122.048;2022-12-05T03:44:54;0.20;;;0.20;;
49221;SDS011;35047;37.588;-122.048;2022-12-05T03:50:11;3.03;;;0.40;;
49221;SDS011;35047;37.588;-122.048;2022-12-05T03:52:53;2.65;;;0.30;;
49221;SDS011;35047;37.588;-122.048;2022-12-05T03:55:20;0.80;;;0.57;;
49221;SDS011;35047;37.588;-122.048;2022-12-05T03:58:05;1.40;;;0.63;;
49221;SDS011;35047;37.588;-122.048;2022-12-05T04:00:36;0.20;;;0.20;;
49221;SDS011;35047;37.588;-122.048;2022-12-05T04:03:19;0.30;;;0.30;;
49221;SDS011;35047;37.588;-122.048;2022-12-05T04:05:53;1.27;;;0.30;;
49221;SDS011;35047;37.588;-122.048;2022-12-05T04:08:34;0.20;;;0.20;;
49221;SDS011;35047;37.588;-122.048;2022-12-05T04:11:15;0.85;;;0.50;;
49221;SDS011;35047;37.588;-122.048;2022-12-05T04:19:17;0.38;;;0.30;;
49221;SDS011;35047;37.588;-122.048;2022-12-05T04:22:21;0.15;;;0.15;;
49221;SDS011;35047;37.588;-122.048;2022-12-05T04:24:50;0.30;;;0.30;;
49221;SDS011;35047;37.588;-122.048;2022-12-05T04:27:42;1.08;;;0.30;;
49221;SDS011;35047;37.588;-122.048;2022-12-05T04:30:57;0.43;;;0.30;;
49221;SDS011;35047;37.588;-122.048;2022-12-05T04:36:07;1.00;;;0.32;;
49221;SDS011;35047;37.588;-122.048;2022-12-05T04:41:25;0.88;;;0.30;;
49221;SDS011;35047;37.588;-122.048;2022-12-05T04:43:58;5.85;;;0.60;;
49221;SDS011;35047;37.588;-122.048;2022-12-05T04:46:28;0.93;;;0.40;;
49221;SDS011;35047;37.588;-122.048;2022-12-05T04:48:55;1.35;;;0.60;;
49221;SDS011;35047;37.588;-122.048;2022-12-05T04:51:29;1.73;;;0.55;;
49221;SDS011;35047;37.588;-122.048;2022-12-05T04:54:01;0.80;;;0.40;;
49221;SDS011;35047;37.588;-122.048;2022-12-05T04:56:49;0.38;;;0.38;;
49221;SDS011;35047;37.588;-122.048;2022-12-05T04:59:19;0.32;;;0.32;;
49221;SDS011;35047;37.588;-122.048;2022-12-05T05:01:54;1.20;;;0.52;;
49221;SDS011;35047;37.588;-122.048;2022-12-05T05:04:32;0.50;;;0.43;;
49221;SDS011;35047;37.588;-122.048;2022-12-05T05:07:11;0.77;;;0.68;;
49221;SDS011;35047;37.588;-122.048;2022-12-05T05:09:39;0.50;;;0.47;;
49221;SDS011;35047;37.588;-122.048;2022-12-05T05:12:06;0.93;;;0.57;;
49221;SDS011;35047;37.588;-122.048;2022-12-05T05:14:34;0.60;;;0.40;;
49221;SDS011;35047;37.588;-122.048;2022-12-05T05:17:00;2.35;;;0.55;;
49221;SDS011;35047;37.588;-122.048;2022-12-05T05:19:27;0.52;;;0.43;;
49221;SDS011;35047;37.588;-122.048;2022-12-05T05:21:55;0.70;;;0.60;;
49221;SDS011;35047;37.588;-122.048;2022-12-05T05:24:23;0.70;;;0.35;;
49221;SDS011;35047;37.588;-122.048;2022-12-05T05:26:50;0.40;;;0.40;;
49221;SDS011;35047;37.588;-122.048;2022-12-05T05:29:19;0.88;;;0.60;;
49221;SDS011;35047;37.588;-122.048;2022-12-05T05:31:46;6.32;;;0.70;;
49221;SDS011;35047;37.588;-122.048;2022-12-05T05:34:13;1.50;;;0.87;;
49221;SDS011;35047;37.588;-122.048;2022-12-05T05:36:40;0.65;;;0.55;;
49221;SDS011;35047;37.588;-122.048;2022-12-05T05:39:10;0.32;;;0.32;;
49221;SDS011;35047;37.588;-122.048;2022-12-05T05:41:39;1.10;;;0.70;;
49221;SDS011;35047;37.588;-122.048;2022-12-05T05:44:08;1.00;;;0.60;;
49221;SDS011;35047;37.588;-122.048;2022-12-05T05:46:35;1.75;;;0.55;;
49221;SDS011;35047;37.588;-122.048;2022-12-05T05:49:03;2.00;;;0.68;;
49221;SDS011;35047;37.588;-122.048;2022-12-05T05:51:30;1.50;;;0.60;;
49221;SDS011;35047;37.588;-122.048;2022-12-05T05:53:57;1.48;;;0.70;;
49221;SDS011;35047;37.588;-122.048;2022-12-05T05:56:25;1.30;;;0.63;;
49221;SDS011;35047;37.588;-122.048;2022-12-05T05:58:57;2.75;;;1.00;;
49221;SDS011;35047;37.588;-122.048;2022-12-05T06:01:28;1.05;;;0.77;;
49221;SDS011;35047;37.588;-122.048;2022-12-05T06:03:55;2.47;;;0.88;;
49221;SDS011;35047;37.588;-122.048;2022-12-05T06:06:23;1.83;;;1.00;;
49221;SDS011;35047;37.588;-122.048;2022-12-05T06:08:50;1.42;;;0.90;;
49221;SDS011;35047;37.588;-122.048;2022-12-05T06:11:20;1.15;;;0.88;;
49221;SDS011;35047;37.588;-122.048;2022-12-05T06:13:49;6.80;;;0.77;;
49221;SDS011;35047;37.588;-122.048;2022-12-05T06:16:17;0.57;;;0.55;;
49221;SDS011;35047;37.588;-122.048;2022-12-05T06:18:45;0.98;;;0.77;;
49221;SDS011;35047;37.588;-122.048;2022-12-05T06:21:12;1.13;;;0.80;;
49221;SDS011;35047;37.588;-122.048;2022-12-05T06:23:41;1.55;;;0.93;;
49221;SDS011;35047;37.588;-122.048;2022-12-05T06:26:10;2.30;;;0.60;;
49221;SDS011;35047;37.588;-122.048;2022-12-05T06:28:39;1.30;;;0.52;;
49221;SDS011;35047;37.588;-122.048;2022-12-05T06:33:38;1.10;;;0.70;;
49221;SDS011;35047;37.588;-122.048;2022-12-05T06:36:06;0.88;;;0.50;;
49221;SDS011;35047;37.588;-122.048;2022-12-05T06:38:36;2.90;;;0.98;;
49221;SDS011;35047;37.588;-122.048;2022-12-05T06:45:59;1.05;;;0.47;;
49221;SDS011;35047;37.588;-122.048;2022-12-05T06:48:30;2.33;;;0.70;;
49221;SDS011;35047;37.588;-122.048;2022-12-05T06:50:57;0.93;;;0.55;;
49221;SDS011;35047;37.588;-122.048;2022-12-05T06:53:25;1.40;;;0.65;;
49221;SDS011;35047;37.588;-122.048;2022-12-05T06:55:58;1.38;;;0.82;;
49221;SDS011;35047;37.588;-122.048;2022-12-05T06:58:27;2.70;;;0.75;;
49221;SDS011;35047;37.588;-122.048;2022-12-05T07:00:54;0.40;;;0.40;;
49221;SDS011;35047;37.588;-122.048;2022-12-05T07:03:38;6.10;;;0.35;;
49221;SDS011;35047;37.588;-122.048;2022-12-05T07:06:06;1.35;;;0.80;;
49221;SDS011;35047;37.588;-122.048;2022-12-05T07:08:33;0.73;;;0.60;;
49221;SDS011;35047;37.588;-122.048;2022-12-05T07:11:02;1.67;;;0.90;;
49221;SDS011;35047;37.588;-122.048;2022-12-05T07:13:31;0.57;;;0.50;;
49221;SDS011;35047;37.588;-122.048;2022-12-05T07:15:58;2.20;;;1.23;;
49221;SDS011;35047;37.588;-122.048;2022-12-05T07:18:25;1.27;;;0.50;;
49221;SDS011;35047;37.588;-122.048;2022-12-05T07:20:57;1.83;;;0.47;;
49221;SDS011;35047;37.588;-122.048;2022-12-05T07:23:25;1.23;;;0.65;;
49221;SDS011;35047;37.588;-122.048;2022-12-05T07:25:52;0.90;;;0.60;;
49221;SDS011;35047;37.588;-122.048;2022-12-05T07:28:20;2.15;;;0.65;;
49221;SDS011;35047;37.588;-122.048;2022-12-05T07:30:46;0.90;;;0.75;;
49221;SDS011;35047;37.588;-122.048;2022-12-05T07:33:13;0.95;;;0.50;;
49221;SDS011;35047;37.588;-122.048;2022-12-05T07:35:40;0.77;;;0.63;;
49221;SDS011;35047;37.588;-122.048;2022-12-05T07:40:36;0.82;;;0.65;;
49221;SDS011;35047;37.588;-122.048;2022-12-05T07:43:03;0.88;;;0.68;;
49221;SDS011;35047;37.588;-122.048;2022-12-05T07:45:29;1.50;;;0.60;;
49221;SDS011;35047;37.588;-122.048;2022-12-05T07:47:58;0.38;;;0.38;;
49221;SDS011;35047;37.588;-122.048;2022-12-05T07:50:25;5.32;;;0.95;;
49221;SDS011;35047;37.588;-122.048;2022-12-05T07:55:19;0.75;;;0.75;;
49221;SDS011;35047;37.588;-122.048;2022-12-05T07:57:45;0.90;;;0.80;;
49221;SDS011;35047;37.588;-122.048;2022-12-05T08:00:13;0.77;;;0.60;;
49221;SDS011;35047;37.588;-122.048;2022-12-05T08:02:41;1.15;;;0.82;;
49221;SDS011;35047;37.588;-122.048;2022-12-05T08:05:08;1.02;;;0.82;;
49221;SDS011;35047;37.588;-122.048;2022-12-05T08:07:35;1.33;;;0.70;;
49221;SDS011;35047;37.588;-122.048;2022-12-05T08:10:02;2.80;;;0.88;;
49221;SDS011;35047;37.588;-122.048;2022-12-05T08:12:30;3.63;;;0.88;;
49221;SDS011;35047;37.588;-122.048;2022-12-05T08:17:23;2.17;;;1.20;;
49221;SDS011;35047;37.588;-122.048;2022-12-05T08:19:51;7.53;;;1.20;;
49221;SDS011;35047;37.588;-122.048;2022-12-05T08:22:18;0.68;;;0.50;;
49221;SDS011;35047;37.588;-122.048;2022-12-05T08:24:49;0.77;;;0.47;;
49221;SDS011;35047;37.588;-122.048;2022-12-05T08:27:16;0.95;;;0.30;;
49221;SDS011;35047;37.588;-122.048;2022-12-05T08:29:43;0.45;;;0.45;;
49221;SDS011;35047;37.588;-122.048;2022-12-05T08:32:10;0.65;;;0.40;;
49221;SDS011;35047;37.588;-122.048;2022-12-05T08:34:37;0.50;;;0.50;;
49221;SDS011;35047;37.588;-122.048;2022-12-05T08:37:04;0.50;;;0.20;;
49221;SDS011;35047;37.588;-122.048;2022-12-05T08:39:31;0.20;;;0.20;;
49221;SDS011;35047;37.588;-122.048;2022-12-05T08:42:00;0.32;;;0.30;;
49221;SDS011;35047;37.588;-122.048;2022-12-05T08:44:27;1.23;;;0.52;;
49221;SDS011;35047;37.588;-122.048;2022-12-05T08:46:54;2.83;;;0.50;;
49221;SDS011;35047;37.588;-122.048;2022-12-05T08:49:22;3.20;;;0.40;;
49221;SDS011;35047;37.588;-122.048;2022-12-05T08:51:49;0.57;;;0.40;;
49221;SDS011;35047;37.588;-122.048;2022-12-05T08:54:16;0.40;;;0.40;;
49221;SDS011;35047;37.588;-122.048;2022-12-05T08:56:43;3.40;;;0.45;;
49221;SDS011;35047;37.588;-122.048;2022-12-05T08:59:09;0.65;;;0.32;;
49221;SDS011;35047;37.588;-122.048;2022-12-05T09:01:36;0.10;;;0.10;;
49221;SDS011;35047;37.588;-122.048;2022-12-05T09:04:04;0.30;;;0.30;;
49221;SDS011;35047;37.588;-122.048;2022-12-05T09:06:32;0.10;;;0.10;;
49221;SDS011;35047;37.588;-122.048;2022-12-05T09:09:02;0.22;;;0.20;;
49221;SDS011;35047;37.588;-122.048;2022-12-05T09:11:32;0.20;;;0.20;;
49221;SDS011;35047;37.588;-122.048;2022-12-05T09:14:02;3.70;;;0.45;;
49221;SDS011;35047;37.588;-122.048;2022-12-05T09:16:30;0.35;;;0.20;;
49221;SDS011;35047;37.588;-122.048;2022-12-05T09:18:59;0.70;;;0.20;;
49221;SDS011;35047;37.588;-122.048;2022-12-05T09:21:28;0.10;;;0.10;;
49221;SDS011;35047;37.588;-122.048;2022-12-05T09:23:59;0.20;;;0.20;;
49221;SDS011;35047;37.588;-122.048;2022-12-05T09:26:27;3.47;;;0.45;;
49221;SDS011;35047;37.588;-122.048;2022-12-05T09:28:54;0.88;;;0.50;;
49221;SDS011;35047;37.588;-122.048;2022-12-05T09:31:22;0.90;;;0.47;;
49221;SDS011;35047;37.588;-122.048;2022-12-05T09:33:51;0.68;;;0.50;;
49221;SDS011;35047;37.588;-122.048;2022-12-05T09:36:20;0.43;;;0.32;;
49221;SDS011;35047;37.588;-122.048;2022-12-05T09:38:48;1.25;;;0.20;;
49221;SDS011;35047;37.588;-122.048;2022-12-05T09:49:32;0.28;;;0.25;;
49221;SDS011;35047;37.588;-122.048;2022-12-05T09:52:00;0.52;;;0.30;;
49221;SDS011;35047;37.588;-122.048;2022-12-05T09:54:28;0.40;;;0.20;;
49221;SDS011;35047;37.588;-122.048;2022-12-05T09:56:55;0.75;;;0.25;;
49221;SDS011;35047;37.588;-122.048;2022-12-05T09:59:23;1.23;;;0.32;;
49221;SDS011;35047;37.588;-122.048;2022-12-05T10:02:02;9.27;;;0.80;;
49221;SDS011;35047;37.588;-122.048;2022-12-05T10:04:53;0.25;;;0.25;;
49221;SDS011;35047;37.588;-122.048;2022-12-05T10:13:21;3.55;;;0.10;;
49221;SDS011;35047;37.588;-122.048;2022-12-05T10:15:52;1.80;;;0.40;;
49221;SDS011;35047;37.588;-122.048;2022-12-05T10:20:57;0.40;;;0.30;;
49221;SDS011;35047;37.588;-122.048;2022-12-05T10:23:54;1.45;;;0.40;;
49221;SDS011;35047;37.588;-122.048;2022-12-05T10:26:28;1.65;;;0.28;;
49221;SDS011;35047;37.588;-122.048;2022-12-05T10:31:51;0.60;;;0.50;;
49221;SDS011;35047;37.588;-122.048;2022-12-05T10:34:28;1.73;;;0.30;;
49221;SDS011;35047;37.588;-122.048;2022-12-05T10:39:39;0.25;;;0.20;;
49221;SDS011;35047;37.588;-122.048;2022-12-05T10:42:09;0.20;;;0.15;;
49221;SDS011;35047;37.588;-122.048;2022-12-05T10:44:44;0.60;;;0.47;;
49221;SDS011;35047;37.588;-122.048;2022-12-05T10:47:11;3.93;;;0.40;;
49221;SDS011;35047;37.588;-122.048;2022-12-05T10:49:38;1.90;;;0.37;;
49221;SDS011;35047;37.588;-122.048;2022-12-05T10:52:05;1.48;;;0.52;;
49221;SDS011;35047;37.588;-122.048;2022-12-05T10:54:34;1.13;;;0.13;;
49221;SDS011;35047;37.588;-122.048;2022-12-05T10:57:29;0.57;;;0.40;;
49221;SDS011;35047;37.588;-122.048;2022-12-05T10:59:55;0.30;;;0.30;;
49221;SDS011;35047;37.588;-122.048;2022-12-05T11:04:59;0.30;;;0.20;;
49221;SDS011;35047;37.588;-122.048;2022-12-05T11:10:25;0.45;;;0.25;;
49221;SDS011;35047;37.588;-122.048;2022-12-05T11:12:57;0.13;;;0.13;;
49221;SDS011;35047;37.588;-122.048;2022-12-05T11:15:26;0.52;;;0.20;;
49221;SDS011;35047;37.588;-122.048;2022-12-05T11:17:55;0.30;;;0.22;;
49221;SDS011;35047;37.588;-122.048;2022-12-05T11:20:42;0.45;;;0.40;;
49221;SDS011;35047;37.588;-122.048;2022-12-05T11:25:53;0.40;;;0.28;;
49221;SDS011;35047;37.588;-122.048;2022-12-05T11:28:23;0.30;;;0.30;;
49221;SDS011;35047;37.588;-122.048;2022-12-05T11:30:59;0.00;;;0.00;;
49221;SDS011;35047;37.588;-122.048;2022-12-05T11:33:33;4.55;;;0.35;;
49221;SDS011;35047;37.588;-122.048;2022-12-05T11:36:22;0.08;;;0.08;;
49221;SDS011;35047;37.588;-122.048;2022-12-05T11:38:49;0.10;;;0.10;;
49221;SDS011;35047;37.588;-122.048;2022-12-05T11:41:30;0.40;;;0.20;;
49221;SDS011;35047;37.588;-122.048;2022-12-05T11:52:34;0.30;;;0.30;;
49221;SDS011;35047;37.588;-122.048;2022-12-05T12:06:28;0.43;;;0.20;;
49221;SDS011;35047;37.588;-122.048;2022-12-05T12:09:28;0.10;;;0.10;;
49221;SDS011;35047;37.588;-122.048;2022-12-05T12:20:45;0.00;;;0.00;;
49221;SDS011;35047;37.588;-122.048;2022-12-05T12:26:05;0.85;;;0.25;;
49221;SDS011;35047;37.588;-122.048;2022-12-05T12:34:35;0.10;;;0.10;;
49221;SDS011;35047;37.588;-122.048;2022-12-05T12:37:26;0.20;;;0.10;;
49221;SDS011;35047;37.588;-122.048;2022-12-05T12:40:04;1.45;;;0.22;;
49221;SDS011;35047;37.588;-122.048;2022-12-05T12:53:41;0.05;;;0.05;;
49221;SDS011;35047;37.588;-122.048;2022-12-05T13:02:02;0.05;;;0.05;;
49221;SDS011;35047;37.588;-122.048;2022-12-05T13:04:56;0.30;;;0.17;;
49221;SDS011;35047;37.588;-122.048;2022-12-05T13:07:45;2.95;;;0.10;;
49221;SDS011;35047;37.588;-122.048;2022-12-05T13:10:31;0.85;;;0.30;;
49221;SDS011;35047;37.588;-122.048;2022-12-05T13:13:15;0.20;;;0.20;;
49221;SDS011;35047;37.588;-122.048;2022-12-05T13:15:55;1.05;;;0.25;;
49221;SDS011;35047;37.588;-122.048;2022-12-05T13:18:25;1.67;;;0.40;;
49221;SDS011;35047;37.588;-122.048;2022-12-05T13:20:56;0.03;;;0.00;;
49221;SDS011;35047;37.588;-122.048;2022-12-05T13:23:26;0.38;;;0.15;;
49221;SDS011;35047;37.588;-122.048;2022-12-05T13:25:55;0.85;;;0.15;;
49221;SDS011;35047;37.588;-122.048;2022-12-05T13:28:32;0.00;;;0.00;;
49221;SDS011;35047;37.588;-122.048;2022-12-05T13:34:51;1.80;;;0.22;;
49221;SDS011;35047;37.588;-122.048;2022-12-05T13:37:00;0.25;;;0.20;;
49221;SDS011;35047;37.588;-122.048;2022-12-05T13:40:04;1.10;;;0.10;;
49221;SDS011;35047;37.588;-122.048;2022-12-05T13:43:02;0.65;;;0.30;;
49221;SDS011;35047;37.588;-122.048;2022-12-05T13:45:31;0.88;;;0.40;;
49221;SDS011;35047;37.588;-122.048;2022-12-05T13:53:30;0.55;;;0.20;;
49221;SDS011;35047;37.588;-122.048;2022-12-05T13:56:06;0.35;;;0.32;;
49221;SDS011;35047;37.588;-122.048;2022-12-05T13:58:53;0.10;;;0.10;;
49221;SDS011;35047;37.588;-122.048;2022-12-05T14:04:00;0.10;;;0.10;;
49221;SDS011;35047;37.588;-122.048;2022-12-05T14:09:03;0.00;;;0.00;;
49221;SDS011;35047;37.588;-122.048;2022-12-05T14:17:32;4.38;;;0.20;;
49221;SDS011;35047;37.588;-122.048;2022-12-05T14:20:15;1.42;;;0.10;;
49221;SDS011;35047;37.588;-122.048;2022-12-05T14:28:17;0.65;;;0.10;;
49221;SDS011;35047;37.588;-122.048;2022-12-05T14:36:36;0.00;;;0.00;;
49221;SDS011;35047;37.588;-122.048;2022-12-05T14:48:22;0.98;;;0.35;;
49221;SDS011;35047;37.588;-122.048;2022-12-05T14:50:43;0.13;;;0.13;;
49221;SDS011;35047;37.588;-122.048;2022-12-05T14:58:50;2.13;;;0.22;;
49221;SDS011;35047;37.588;-122.048;2022-12-05T15:01:31;2.50;;;0.20;;
49221;SDS011;35047;37.588;-122.048;2022-12-05T15:04:14;0.25;;;0.10;;
49221;SDS011;35047;37.588;-122.048;2022-12-05T15:06:56;0.13;;;0.10;;
49221;SDS011;35047;37.588;-122.048;2022-12-05T15:09:34;0.00;;;0.00;;
49221;SDS011;35047;37.588;-122.048;2022-12-05T15:12:17;1.08;;;0.35;;
49221;SDS011;35047;37.588;-122.048;2022-12-05T15:17:21;0.10;;;0.10;;
49221;SDS011;35047;37.588;-122.048;2022-12-05T15:19:55;0.15;;;0.05;;
49221;SDS011;35047;37.588;-122.048;2022-12-05T15:22:31;0.45;;;0.10;;
49221;SDS011;35047;37.588;-122.048;2022-12-05T15:27:54;0.00;;;0.00;;
49221;SDS011;35047;37.588;-122.048;2022-12-05T15:30:24;0.10;;;0.10;;
49221;SDS011;35047;37.588;-122.048;2022-12-05T15:32:52;3.40;;;0.32;;
49221;SDS011;35047;37.588;-122.048;2022-12-05T15:35:19;0.30;;;0.10;;
49221;SDS011;35047;37.588;-122.048;2022-12-05T15:38:01;0.35;;;0.10;;
49221;SDS011;35047;37.588;-122.048;2022-12-05T15:40:53;0.30;;;0.10;;
49221;SDS011;35047;37.588;-122.048;2022-12-05T15:48:33;0.10;;;0.10;;
49221;SDS011;35047;37.588;-122.048;2022-12-05T15:51:00;0.40;;;0.20;;
49221;SDS011;35047;37.588;-122.048;2022-12-05T15:53:31;0.25;;;0.20;;
49221;SDS011;35047;37.588;-122.048;2022-12-05T15:56:04;0.00;;;0.00;;
49221;SDS011;35047;37.588;-122.048;2022-12-05T16:01:34;0.75;;;0.38;;
49221;SDS011;35047;37.588;-122.048;2022-12-05T16:04:14;1.00;;;0.17;;
49221;SDS011;35047;37.588;-122.048;2022-12-05T16:06:49;0.00;;;0.00;;
49221;SDS011;35047;37.588;-122.048;2022-12-05T16:09:20;0.08;;;0.08;;
49221;SDS011;35047;37.588;-122.048;2022-12-05T16:11:52;0.00;;;0.00;;
49221;SDS011;35047;37.588;-122.048;2022-12-05T16:14:32;0.20;;;0.10;;
49221;SDS011;35047;37.588;-122.048;2022-12-05T16:17:03;0.20;;;0.20;;
49221;SDS011;35047;37.588;-122.048;2022-12-05T16:19:32;0.00;;;0.00;;
49221;SDS011;35047;37.588;-122.048;2022-12-05T16:22:08;0.00;;;0.00;;
49221;SDS011;35047;37.588;-122.048;2022-12-05T16:25:00;0.10;;;0.10;;
49221;SDS011;35047;37.588;-122.048;2022-12-05T16:30:08;0.13;;;0.13;;
49221;SDS011;35047;37.588;-122.048;2022-12-05T16:32:39;2.10;;;0.10;;
49221;SDS011;35047;37.588;-122.048;2022-12-05T16:43:22;1.65;;;0.30;;
49221;SDS011;35047;37.588;-122.048;2022-12-05T16:45:52;0.10;;;0.10;;
49221;SDS011;35047;37.588;-122.048;2022-12-05T16:48:28;0.25;;;0.20;;
49221;SDS011;35047;37.588;-122.048;2022-12-05T16:53:46;0.30;;;0.20;;
49221;SDS011;35047;37.588;-122.048;2022-12-05T16:56:15;0.65;;;0.28;;
49221;SDS011;35047;37.588;-122.048;2022-12-05T16:58:52;0.87;;;0.53;;
49221;SDS011;35047;37.588;-122.048;2022-12-05T17:01:22;0.10;;;0.10;;
49221;SDS011;35047;37.588;-122.048;2022-12-05T17:03:50;0.10;;;0.05;;
49221;SDS011;35047;37.588;-122.048;2022-12-05T17:06:19;0.85;;;0.30;;
49221;SDS011;35047;37.588;-122.048;2022-12-05T17:08:51;0.28;;;0.28;;
49221;SDS011;35047;37.588;-122.048;2022-12-05T17:11:24;0.68;;;0.20;;
49221;SDS011;35047;37.588;-122.048;2022-12-05T17:13:52;0.13;;;0.13;;
49221;SDS011;35047;37.588;-122.048;2022-12-05T17:16:21;0.10;;;0.10;;
49221;SDS011;35047;37.588;-122.048;2022-12-05T17:18:49;0.57;;;0.20;;
49221;SDS011;35047;37.588;-122.048;2022-12-05T17:21:17;1.75;;;0.30;;
49221;SDS011;35047;37.588;-122.048;2022-12-05T17:23:46;0.63;;;0.30;;
49221;SDS011;35047;37.588;-122.048;2022-12-05T17:26:14;0.10;;;0.00;;
49221;SDS011;35047;37.588;-122.048;2022-12-05T17:28:43;0.05;;;0.00;;
49221;SDS011;35047;37.588;-122.048;2022-12-05T17:31:14;0.20;;;0.15;;
49221;SDS011;35047;37.588;-122.048;2022-12-05T17:33:44;0.25;;;0.25;;
49221;SDS011;35047;37.588;-122.048;2022-12-05T17:36:11;0.93;;;0.10;;
49221;SDS011;35047;37.588;-122.048;2022-12-05T17:38:39;0.30;;;0.25;;
49221;SDS011;35047;37.588;-122.048;2022-12-05T17:41:09;1.52;;;0.22;;
49221;SDS011;35047;37.588;-122.048;2022-12-05T17:43:45;0.07;;;0.07;;
49221;SDS011;35047;37.588;-122.048;2022-12-05T17:46:15;3.28;;;0.10;;
49221;SDS011;35047;37.588;-122.048;2022-12-05T17:48:48;0.22;;;0.22;;
49221;SDS011;35047;37.588;-122.048;2022-12-05T17:51:16;0.08;;;0.08;;
49221;SDS011;35047;37.588;-122.048;2022-12-05T17:53:44;0.00;;;0.00;;
49221;SDS011;35047;37.588;-122.048;2022-12-05T17:56:11;0.35;;;0.05;;
49221;SDS011;35047;37.588;-122.048;2022-12-05T17:58:38;0.10;;;0.10;;
49221;SDS011;35047;37.588;-122.048;2022-12-05T18:01:05;0.10;;;0.10;;
49221;SDS011;35047;37.588;-122.048;2022-12-05T18:03:36;1.58;;;0.45;;
49221;SDS011;35047;37.588;-122.048;2022-12-05T18:06:03;17.17;;;0.35;;
49221;SDS011;35047;37.588;-122.048;2022-12-05T18:08:31;0.20;;;0.05;;
49221;SDS011;35047;37.588;-122.048;2022-12-05T18:10:58;0.05;;;0.05;;
49221;SDS011;35047;37.588;-122.048;2022-12-05T18:13:26;0.93;;;0.10;;
49221;SDS011;35047;37.588;-122.048;2022-12-05T18:18:23;0.00;;;0.00;;
49221;SDS011;35047;37.588;-122.048;2022-12-05T18:21:01;0.08;;;0.08;;